Flight Track Log - Related Links

Times and Time Zones

All times are in EDT time to prevent confusion due to time zone crossing. See the N777NC flight status page for this flight to view local times or setup timezone preferences in your user account.

Time Position Orientation Groundspeed Altitude Reporting Facility
EDT Latitude Longitude Course Direction KTS MPH feet Rate Location/Type
Fri 12:26:44 PM 36.0500 -86.6833 180° South 228 262 3,000  Level Nashville TRACON
Fri 12:27:38 PM 35.9833 -86.6667 169° South 243 280 4,600 2,263 Climbing Nashville TRACON
Fri 12:28:00 PM 35.9018 -86.4695 145° Southeast  Level Estimated
Fri 12:28:38 PM 35.9167 -86.6333 158° South 277 319 7,300  Level Nashville TRACON
Fri 12:29:00 PM 35.8177 -86.4202 155° Southeast  Level FlightAware Approximate
Fri 12:29:50 PM 35.8464 -86.5694 144° Southeast 314 361 9,900  Level Memphis Center
Fri 12:30:00 PM 35.7438 -86.3504 136° Southeast  Level Estimated
Fri 12:30:50 PM 35.7711 -86.5014 144° Southeast 327 376 11,100  Level Memphis Center
Fri 12:31:50 PM 35.6750 -86.4239 147° Southeast 360 414 13,000 2,150 Climbing Memphis Center
Fri 12:32:50 PM 35.5850 -86.3492 146° Southeast 382 440 15,400 2,300 Climbing Memphis Center
Fri 12:33:50 PM 35.4931 -86.2772 147° Southeast 388 447 17,600 1,770 Climbing Memphis Center
Fri 12:35:09 PM 35.3658 -86.1831 149° Southeast 405 466 19,500 1,338 Climbing Atlanta Center
Fri 12:36:09 PM 35.2647 -86.1094 149° Southeast 419 482 20,700 1,200 Climbing Atlanta Center
Fri 12:37:09 PM 35.1742 -86.0358 146° Southeast 431 496 21,900 1,400 Climbing Atlanta Center
Fri 12:38:09 PM 35.0797 -85.9397 140° Southeast 436 502 23,500 1,500 Climbing Atlanta Center
Fri 12:39:09 PM 34.9853 -85.8386 139° Southeast 446 513 24,900 750 Climbing Atlanta Center
Fri 12:40:09 PM 34.8886 -85.7403 140° Southeast 451 519 25,000 50 Climbing Atlanta Center
Fri 12:41:09 PM 34.7897 -85.6422 141° Southeast 456 525 25,000 -100 Level Atlanta Center
Fri 12:42:09 PM 34.6867 -85.5494 143° Southeast 461 531 24,800 -1,050 Descending Atlanta Center
Fri 12:43:09 PM 34.5833 -85.4642 146° Southeast 461 531 22,900 -2,450 Descending Atlanta Center
Fri 12:44:09 PM 34.4797 -85.3869 148° Southeast 447 514 19,900 -2,750 Descending Atlanta Center
Fri 12:45:09 PM 34.3722 -85.2972 145° Southeast 442 509 17,400 -2,300 Descending Atlanta Center
Fri 12:46:09 PM 34.2833 -85.2128 142° Southeast 420 483 15,300 -1,750 Descending Atlanta Center
Fri 12:47:09 PM 34.1942 -85.1364 145° Southeast 408 470 13,900 -650 Descending Atlanta Center
Fri 12:48:09 PM 34.1178 -85.0475 136° Southeast 394 453 14,000 -100 Climbing Atlanta Center
Fri 12:49:09 PM 34.0414 -84.9489 133° Southeast 389 448 13,700 -750 Descending Atlanta Center
Fri 12:50:09 PM 33.9564 -84.8653 141° Southeast 389 448 12,500 -850 Descending Atlanta Center
Fri 12:51:09 PM 33.8778 -84.7694 135° Southeast 400 460 12,000 -250 Descending Atlanta Center
Fri 12:52:09 PM 33.8072 -84.6764 132° Southeast 390 449 12,000  Level Atlanta Center
Fri 12:53:09 PM 33.7617 -84.5886 122° Southeast 336 387 12,000 -500 Level Atlanta Center
Fri 12:54:09 PM 33.7411 -84.5008 106° East 285 328 11,000 -1,450 Descending Atlanta Center
Fri 12:55:09 PM 33.7394 -84.4136 91° East 267 307 9,100 -1,609 Descending Atlanta Center
Fri 12:56:27 PM 33.7500 -84.3167 83° East 223 257 7,300 -1,435 Descending Atlanta TRACON
Fri 12:57:27 PM 33.7500 -84.2333 90° East 223 257 5,800 -1,150 Descending Atlanta TRACON
Fri 12:58:27 PM 33.7500 -84.1667 90° East 224 258 5,000 -421 Descending Atlanta TRACON
Fri 12:59:21 PM 33.7167 -84.1167 129° Southeast 231 266 5,000  Level Atlanta TRACON
Fri 01:00:27 PM 33.6500 -84.1167 180° South 210 242 5,000 -143 Level Atlanta TRACON
Fri 01:01:27 PM 33.6500 -84.1667 270° West 162 186 4,700 -600 Descending Atlanta TRACON
Fri 01:02:27 PM 33.6500 -84.2333 270° West 177 204 3,800 -900 Descending Atlanta TRACON

Login

Don't have an account? Register now (free) for customized features, flight alerts, and more!